Time;durP1;ratioP1;P1;durP2;ratioP2;P2;SDS_P1;SDS_P2;PMS_P1;PMS_P2;Temp;Humidity;BMP_temperature;BMP_pressure;BME280_temperature;BME280_humidity;BME280_pressure;Samples;Min_cycle;Max_cycle;Signal;HPM_P1;HPM_P2
2023/01/04 00:01:07;;;;;;;13.90;4.03;;;8.50;99.90;;;;;;5072254;28;20163;-65
2023/01/04 00:03:33;;;;;;;8.35;4.25;;;8.50;99.90;;;;;;5073403;28;20044;-65
2023/01/04 00:06:03;;;;;;;9.40;3.85;;;8.40;99.90;;;;;;5055301;28;20044;-66
2023/01/04 00:08:29;;;;;;;6.57;3.50;;;8.40;99.90;;;;;;5054617;28;20083;-65
2023/01/04 00:11:02;;;;;;;8.55;3.95;;;8.40;99.90;;;;;;5072876;28;20040;-65
2023/01/04 00:13:29;;;;;;;9.85;4.20;;;8.40;99.90;;;;;;5054223;28;20358;-66
2023/01/04 00:15:55;;;;;;;8.38;4.60;;;8.30;99.90;;;;;;5071817;28;20048;-66
2023/01/04 00:18:21;;;;;;;6.60;4.05;;;8.30;99.90;;;;;;5073025;28;20040;-66
2023/01/04 00:20:47;;;;;;;6.80;3.92;;;8.30;99.90;;;;;;5054903;28;20122;-66
2023/01/04 00:23:12;;;;;;;9.93;4.20;;;8.30;99.90;;;;;;5054023;28;20044;-66
2023/01/04 00:25:38;;;;;;;9.07;4.15;;;8.30;99.90;;;;;;5073064;28;20135;-66
2023/01/04 00:28:04;;;;;;;7.63;3.95;;;8.30;99.90;;;;;;5054437;28;20115;-65
2023/01/04 00:30:30;;;;;;;9.00;4.05;;;8.30;99.90;;;;;;5054012;28;20440;-65
2023/01/04 00:32:56;;;;;;;8.65;4.22;;;8.30;99.90;;;;;;5054859;28;20056;-65
2023/01/04 00:35:22;;;;;;;8.32;3.72;;;8.30;99.90;;;;;;5054516;28;20123;-65
2023/01/04 00:37:48;;;;;;;6.82;3.63;;;8.30;99.90;;;;;;5053718;28;20123;-65
2023/01/04 00:40:14;;;;;;;8.27;4.30;;;8.30;99.90;;;;;;5072329;28;20040;-65
2023/01/04 00:42:39;;;;;;;9.23;4.75;;;8.40;99.90;;;;;;5072381;28;20025;-65
2023/01/04 00:45:06;;;;;;;8.07;4.25;;;8.40;99.90;;;;;;5036892;28;20504;-65
2023/01/04 00:47:31;;;;;;;8.70;3.75;;;8.40;99.90;;;;;;5054505;28;20047;-65
2023/01/04 00:49:57;;;;;;;9.82;3.83;;;8.40;99.90;;;;;;5053700;28;20040;-66
2023/01/04 00:52:23;;;;;;;9.10;4.30;;;8.40;99.90;;;;;;5054501;28;20048;-66
2023/01/04 00:54:48;;;;;;;10.52;3.97;;;8.40;99.90;;;;;;5054104;28;20554;-66
2023/01/04 00:57:14;;;;;;;8.02;3.90;;;8.30;99.90;;;;;;5053382;28;20052;-66
2023/01/04 00:59:40;;;;;;;8.68;4.07;;;8.40;99.90;;;;;;5054680;28;20052;-65
2023/01/04 01:02:05;;;;;;;9.55;3.92;;;8.40;99.90;;;;;;5053963;28;20467;-66
2023/01/04 01:04:31;;;;;;;10.50;3.90;;;8.40;99.90;;;;;;5053546;28;20446;-65
2023/01/04 01:06:57;;;;;;;10.93;3.42;;;8.40;99.90;;;;;;5054302;28;20055;-65
2023/01/04 01:09:22;;;;;;;6.68;3.53;;;8.40;99.90;;;;;;5071957;28;20040;-66
2023/01/04 01:11:50;;;;;;;10.07;4.18;;;8.40;99.90;;;;;;5070976;28;20547;-66
2023/01/04 01:14:22;;;;;;;7.60;3.83;;;8.40;99.90;;;;;;5071823;28;20053;-66
2023/01/04 01:16:49;;;;;;;10.35;4.10;;;8.40;99.90;;;;;;5071940;28;20524;-66
2023/01/04 01:19:14;;;;;;;8.15;3.53;;;8.40;99.90;;;;;;5071212;28;20036;-66
2023/01/04 01:21:40;;;;;;;7.93;3.72;;;8.40;99.90;;;;;;5054165;28;20040;-66
2023/01/04 01:24:06;;;;;;;9.40;4.55;;;8.40;99.90;;;;;;5071328;28;20040;-66
2023/01/04 01:26:32;;;;;;;10.13;5.57;;;8.40;99.90;;;;;;5053163;28;20075;-66
2023/01/04 01:28:58;;;;;;;5.95;3.20;;;8.40;99.90;;;;;;5071909;28;20486;-67
2023/01/04 01:31:26;;;;;;;7.00;3.58;;;8.40;99.90;;;;;;5053732;28;20052;-67
2023/01/04 01:33:54;;;;;;;6.45;3.40;;;8.40;99.90;;;;;;5036736;28;20400;-65
2023/01/04 01:36:21;;;;;;;7.40;3.88;;;8.40;99.90;;;;;;5037213;28;20059;-65
2023/01/04 01:38:47;;;;;;;13.77;3.45;;;8.40;99.90;;;;;;5037125;28;20049;-65
2023/01/04 01:41:31;;;;;;;8.85;3.53;;;8.40;99.90;;;;;;5036217;28;20059;-65
2023/01/04 01:44:06;;;;;;;7.03;3.13;;;8.40;99.90;;;;;;5037350;28;20063;-65
2023/01/04 01:46:35;;;;;;;7.43;3.13;;;8.40;99.90;;;;;;5036647;28;20575;-65
2023/01/04 01:49:12;;;;;;;8.27;3.72;;;8.40;99.90;;;;;;5037071;28;20118;-65
2023/01/04 01:51:40;;;;;;;6.63;2.67;;;8.40;99.90;;;;;;5054151;28;20363;-64
2023/01/04 01:54:11;;;;;;;6.70;3.25;;;8.40;99.90;;;;;;5070630;28;20393;-65
2023/01/04 01:56:39;;;;;;;9.02;3.60;;;8.40;99.90;;;;;;5071880;28;20036;-65
2023/01/04 01:59:08;;;;;;;7.97;2.88;;;8.40;99.90;;;;;;5053358;28;20109;-66
2023/01/04 02:01:35;;;;;;;6.43;2.58;;;8.50;99.90;;;;;;5071006;28;20072;-65
2023/01/04 02:04:02;;;;;;;8.38;3.92;;;8.50;99.90;;;;;;5053342;28;20552;-66
2023/01/04 02:06:33;;;;;;;6.72;2.95;;;8.50;99.90;;;;;;5036954;28;20048;-66
2023/01/04 02:09:01;;;;;;;6.68;2.63;;;8.50;99.90;;;;;;5036102;28;20526;-63
2023/01/04 02:11:27;;;;;;;5.40;2.50;;;8.50;99.90;;;;;;5071292;28;20366;-63
2023/01/04 02:16:43;;;;;;;;;;;8.50;99.90;;;;;;5053134;28;20080;-63
2023/01/04 02:19:18;;;;;;;4.55;2.20;;;8.60;99.90;;;;;;5053450;28;20003;-64
2023/01/04 02:21:52;;;;;;;6.65;2.42;;;8.60;99.90;;;;;;5052733;28;20123;-63
2023/01/04 02:24:42;;;;;;;6.38;2.50;;;8.60;99.90;;;;;;5052968;28;20040;-63
2023/01/04 02:27:35;;;;;;;6.88;2.70;;;8.60;99.90;;;;;;5053196;28;20052;-65
2023/01/04 02:30:19;;;;;;;5.80;2.10;;;8.60;99.90;;;;;;5035870;28;20040;-67
2023/01/04 02:32:52;;;;;;;4.75;2.00;;;8.70;99.90;;;;;;5053342;28;20420;-67
2023/01/04 02:35:28;;;;;;;3.80;2.00;;;8.60;99.90;;;;;;5053718;28;20128;-66
2023/01/04 02:38:03;;;;;;;4.63;2.13;;;8.70;99.90;;;;;;5056816;28;20043;-66
2023/01/04 02:40:50;;;;;;;3.88;1.77;;;8.70;99.90;;;;;;5057134;28;20060;-65
2023/01/04 02:46:24;;;;;;;4.90;2.10;;;8.70;99.90;;;;;;5074626;28;20048;-64
2023/01/04 02:51:36;;;;;;;4.10;1.90;;;8.80;99.90;;;;;;5074052;28;20059;-64
2023/01/04 02:54:09;;;;;;;7.90;1.92;;;8.70;99.90;;;;;;5056397;28;20129;-64
2023/01/04 02:56:40;;;;;;;5.15;1.90;;;8.80;99.90;;;;;;5074129;28;20106;-64
2023/01/04 02:59:09;;;;;;;3.78;1.60;;;8.80;99.90;;;;;;5074024;28;20075;-64
2023/01/04 03:07:40;;;;;;;3.88;1.67;;;8.90;99.90;;;;;;5036595;28;20079;-64
2023/01/04 03:10:15;;;;;;;5.68;2.20;;;8.90;99.90;;;;;;5055952;28;20079;-64
2023/01/04 03:13:11;;;;;;;4.05;1.80;;;9.00;99.90;;;;;;5055776;28;20074;-64
2023/01/04 03:15:39;;;;;;;4.35;1.65;;;9.00;99.90;;;;;;5051372;28;20055;-64
2023/01/04 03:18:22;;;;;;;4.53;1.90;;;9.10;99.90;;;;;;5055266;28;20044;-64
2023/01/04 03:20:51;;;;;;;3.35;1.58;;;9.10;99.90;;;;;;5056078;28;20453;-64
2023/01/04 03:35:21;;;;;;;5.30;2.40;;;9.30;99.90;;;;;;4992186;28;20057;-64
2023/01/04 03:43:08;;;;;;;6.68;3.05;;;9.40;99.90;;;;;;4992185;28;20053;-65
2023/01/04 03:49:32;;;;;;;4.68;2.67;;;9.50;99.90;;;;;;5055456;28;20055;-62
2023/01/04 03:52:02;;;;;;;6.18;3.00;;;9.50;99.90;;;;;;5055592;28;20428;-61
2023/01/04 03:54:33;;;;;;;6.22;3.08;;;9.50;99.90;;;;;;5054679;28;20042;-62
2023/01/04 03:56:59;;;;;;;6.10;3.80;;;9.50;99.90;;;;;;5038944;28;20076;-62
2023/01/04 03:59:25;;;;;;;6.28;3.50;;;9.50;99.90;;;;;;5073333;28;20749;-62
2023/01/04 04:01:52;;;;;;;6.93;3.90;;;9.50;99.90;;;;;;5072407;28;20490;-65
2023/01/04 04:09:47;;;;;;;9.37;5.27;;;9.60;99.90;;;;;;5073208;28;20259;-65
2023/01/04 04:12:12;;;;;;;7.32;4.93;;;9.60;99.90;;;;;;5055012;28;20405;-63
2023/01/04 04:14:38;;;;;;;10.05;5.13;;;9.60;99.90;;;;;;5072548;28;20040;-63
2023/01/04 04:17:04;;;;;;;7.63;4.85;;;9.70;99.90;;;;;;5054816;28;20040;-64
2023/01/04 04:19:29;;;;;;;9.30;3.85;;;9.70;99.90;;;;;;5072822;28;20047;-64
2023/01/04 04:21:55;;;;;;;7.10;3.88;;;9.90;99.90;;;;;;5053890;28;20043;-64
2023/01/04 04:24:25;;;;;;;11.55;4.15;;;9.90;99.90;;;;;;5054692;28;20119;-64
2023/01/04 04:26:55;;;;;;;7.90;4.45;;;10.00;99.90;;;;;;5072564;28;20052;-63
2023/01/04 04:29:22;;;;;;;8.40;3.60;;;10.10;99.90;;;;;;5071901;28;20042;-63
2023/01/04 04:31:48;;;;;;;9.90;3.60;;;10.10;99.90;;;;;;5072590;28;20043;-63
2023/01/04 04:34:14;;;;;;;7.32;2.90;;;10.20;99.90;;;;;;5054394;28;20485;-63
2023/01/04 04:36:39;;;;;;;7.60;3.45;;;10.30;99.90;;;;;;5037443;28;20044;-63
2023/01/04 04:39:05;;;;;;;7.43;3.00;;;10.30;99.90;;;;;;5072199;28;20056;-62
2023/01/04 04:41:37;;;;;;;10.95;4.28;;;10.40;99.90;;;;;;5054807;28;20051;-63
2023/01/04 04:44:03;;;;;;;9.57;3.45;;;10.40;99.90;;;;;;5071282;28;20045;-64
2023/01/04 04:46:29;;;;;;;9.57;3.42;;;10.50;99.90;;;;;;5054548;28;20046;-63
2023/01/04 04:48:55;;;;;;;11.10;4.18;;;10.50;99.90;;;;;;5054420;28;20036;-63
2023/01/04 04:51:20;;;;;;;11.32;3.83;;;10.50;99.90;;;;;;5071468;28;20090;-63
2023/01/04 04:53:47;;;;;;;8.57;3.40;;;10.60;99.90;;;;;;5054388;28;20048;-62
2023/01/04 04:56:13;;;;;;;8.18;2.92;;;10.60;99.90;;;;;;5053406;28;20079;-64
2023/01/04 04:58:39;;;;;;;9.05;3.22;;;10.60;99.90;;;;;;5071905;28;20071;-64
2023/01/04 05:01:06;;;;;;;7.60;2.83;;;10.60;99.90;;;;;;5053910;28;20048;-64
2023/01/04 05:03:32;;;;;;;8.55;2.90;;;10.60;99.90;;;;;;5053444;28;20043;-64
2023/01/04 05:05:57;;;;;;;7.05;3.00;;;10.70;99.90;;;;;;5054228;28;20028;-64
2023/01/04 05:08:23;;;;;;;9.30;3.22;;;10.70;99.90;;;;;;5054226;28;20066;-64
2023/01/04 05:10:49;;;;;;;7.28;2.50;;;10.70;99.90;;;;;;5036913;28;20037;-64
2023/01/04 05:13:15;;;;;;;7.68;2.20;;;10.70;99.90;;;;;;5053931;28;20493;-64
2023/01/04 05:15:42;;;;;;;6.60;2.58;;;10.70;99.90;;;;;;5054232;28;20043;-64
2023/01/04 05:18:10;;;;;;;11.50;2.67;;;10.70;99.90;;;;;;5053267;28;20090;-64
2023/01/04 05:20:36;;;;;;;5.90;2.35;;;10.80;99.90;;;;;;5054240;28;20049;-64
2023/01/04 05:23:02;;;;;;;5.80;1.98;;;10.70;99.90;;;;;;5053873;28;20072;-64
2023/01/04 05:25:28;;;;;;;7.20;2.20;;;10.70;99.90;;;;;;5053103;28;20110;-64
2023/01/04 05:27:54;;;;;;;5.35;1.58;;;10.70;99.90;;;;;;5071561;28;20048;-64
2023/01/04 05:33:05;;;;;;;4.20;1.67;;;10.70;99.90;;;;;;5052618;28;20536;-64
2023/01/04 05:35:31;;;;;;;7.95;2.10;;;10.70;99.90;;;;;;5072050;28;20119;-64
2023/01/04 05:37:56;;;;;;;4.60;2.13;;;10.60;99.90;;;;;;5071807;28;20075;-64
2023/01/04 05:40:22;;;;;;;6.07;2.35;;;10.60;99.90;;;;;;5052953;28;20044;-64
2023/01/04 05:42:48;;;;;;;6.22;2.60;;;10.50;99.90;;;;;;5053915;28;20049;-64
2023/01/04 05:45:16;;;;;;;6.22;3.00;;;10.50;99.90;;;;;;5071743;28;20393;-64
2023/01/04 05:47:42;;;;;;;5.50;3.10;;;10.50;99.90;;;;;;5053167;28;20048;-64
2023/01/04 05:50:08;;;;;;;7.90;3.20;;;10.40;99.90;;;;;;5071737;28;20040;-65
2023/01/04 05:52:34;;;;;;;5.95;2.92;;;10.40;99.90;;;;;;5053173;28;20041;-64
2023/01/04 05:54:59;;;;;;;5.18;2.80;;;10.40;99.90;;;;;;5053848;28;20051;-65
2023/01/04 05:57:26;;;;;;;5.35;3.08;;;10.40;99.90;;;;;;5053355;28;20046;-65
2023/01/04 05:59:51;;;;;;;8.43;3.33;;;10.30;99.90;;;;;;5053014;28;20240;-64
2023/01/04 06:02:20;;;;;;;6.95;3.72;;;10.30;99.90;;;;;;5071511;28;20136;-65
2023/01/04 06:04:46;;;;;;;7.05;3.33;;;10.40;99.90;;;;;;5071466;28;20134;-63
2023/01/04 06:07:12;;;;;;;8.80;3.42;;;10.30;99.90;;;;;;5070666;28;20043;-63
2023/01/04 06:09:38;;;;;;;8.18;3.28;;;10.40;99.90;;;;;;5071636;28;20090;-63
2023/01/04 06:12:05;;;;;;;7.32;3.15;;;10.40;99.90;;;;;;5056409;28;20500;-63
2023/01/04 06:14:31;;;;;;;6.53;3.13;;;10.50;99.90;;;;;;5056911;28;20123;-63
2023/01/04 06:16:57;;;;;;;11.13;3.25;;;10.50;99.90;;;;;;5057195;28;20052;-63
2023/01/04 06:19:23;;;;;;;8.52;2.78;;;10.50;99.90;;;;;;5057338;28;20044;-63
2023/01/04 06:21:49;;;;;;;11.45;3.75;;;10.60;99.90;;;;;;5039633;28;20086;-63
2023/01/04 06:24:15;;;;;;;10.70;2.50;;;10.70;99.90;;;;;;5040388;28;20044;-63
2023/01/04 06:26:41;;;;;;;9.30;2.45;;;10.70;99.90;;;;;;5056953;28;20049;-63
2023/01/04 06:29:06;;;;;;;8.65;2.58;;;10.70;99.90;;;;;;5056405;28;20127;-63
2023/01/04 06:31:32;;;;;;;7.55;2.40;;;10.80;99.90;;;;;;5057042;28;20401;-63
2023/01/04 06:33:58;;;;;;;10.07;2.88;;;10.70;99.90;;;;;;5057188;28;20098;-63
2023/01/04 06:36:24;;;;;;;9.18;3.28;;;10.70;99.90;;;;;;5056063;28;20048;-65
2023/01/04 06:38:50;;;;;;;12.43;3.13;;;10.80;99.90;;;;;;5056704;28;20124;-64
2023/01/04 06:41:16;;;;;;;10.43;3.15;;;10.70;99.90;;;;;;5074553;28;20502;-64
2023/01/04 06:43:42;;;;;;;10.38;2.97;;;10.80;99.90;;;;;;5055807;28;20040;-64
2023/01/04 06:46:07;;;;;;;10.98;3.47;;;10.70;99.90;;;;;;5056662;28;20067;-63
2023/01/04 06:48:33;;;;;;;16.25;3.38;;;10.70;99.90;;;;;;5074833;28;20037;-63
2023/01/04 06:50:59;;;;;;;10.60;3.97;;;10.80;99.90;;;;;;5055612;28;20101;-64
2023/01/04 06:53:24;;;;;;;8.90;2.95;;;10.80;99.90;;;;;;5056474;28;20454;-64
2023/01/04 06:55:50;;;;;;;13.30;5.40;;;10.80;99.90;;;;;;5055687;28;20043;-64
2023/01/04 06:58:16;;;;;;;12.98;3.83;;;10.80;99.90;;;;;;5074335;28;20397;-64
2023/01/04 07:00:41;;;;;;;11.75;3.70;;;10.80;99.90;;;;;;5056505;28;20048;-64
2023/01/04 07:03:08;;;;;;;11.70;3.80;;;10.80;99.90;;;;;;5055631;28;20481;-64
2023/01/04 07:05:34;;;;;;;14.77;3.08;;;10.80;99.90;;;;;;5056586;28;20119;-65
2023/01/04 07:08:01;;;;;;;16.77;3.80;;;10.80;99.90;;;;;;5074242;28;20111;-64
2023/01/04 07:10:27;;;;;;;12.27;3.88;;;10.90;99.90;;;;;;5055324;28;20086;-64
2023/01/04 07:12:53;;;;;;;10.70;3.53;;;10.90;99.90;;;;;;5074019;28;20547;-64
2023/01/04 07:15:18;;;;;;;10.35;3.42;;;10.90;99.90;;;;;;5056069;28;20044;-64
2023/01/04 07:17:46;;;;;;;13.13;4.70;;;10.90;99.90;;;;;;5073407;28;20067;-65
2023/01/04 07:20:12;;;;;;;14.95;4.53;;;10.90;99.90;;;;;;5056152;28;20485;-65
2023/01/04 07:22:38;;;;;;;14.55;4.15;;;10.90;99.90;;;;;;5056095;28;20095;-64
2023/01/04 07:25:04;;;;;;;16.02;4.30;;;10.90;99.90;;;;;;5055126;28;20037;-65
2023/01/04 07:27:29;;;;;;;13.02;3.50;;;10.90;99.90;;;;;;5073897;28;20084;-64
2023/01/04 07:29:55;;;;;;;15.95;4.15;;;10.90;99.90;;;;;;5056072;28;20087;-64
2023/01/04 07:32:21;;;;;;;15.13;4.40;;;10.90;99.90;;;;;;5055245;28;20041;-64
2023/01/04 07:34:46;;;;;;;15.40;3.60;;;10.90;99.90;;;;;;5055866;28;20040;-64
2023/01/04 07:37:14;;;;;;;15.40;3.83;;;10.80;99.90;;;;;;5055774;28;20045;-63
2023/01/04 07:39:39;;;;;;;15.30;3.75;;;10.80;99.90;;;;;;5055231;28;20131;-65
2023/01/04 07:42:05;;;;;;;13.98;4.35;;;10.80;99.90;;;;;;5073658;28;20124;-64
2023/01/04 07:44:31;;;;;;;14.23;4.78;;;10.80;99.90;;;;;;5073554;28;20090;-65
2023/01/04 07:46:56;;;;;;;19.42;4.22;;;10.80;99.90;;;;;;5054818;28;20101;-65
2023/01/04 07:49:22;;;;;;;18.17;4.15;;;10.80;99.90;;;;;;5073645;28;20043;-64
2023/01/04 07:51:49;;;;;;;13.32;4.30;;;10.80;99.90;;;;;;5055349;28;20037;-65
2023/01/04 07:54:15;;;;;;;17.95;4.75;;;10.80;99.90;;;;;;5072448;28;20055;-64
2023/01/04 07:56:42;;;;;;;13.95;4.47;;;10.80;99.90;;;;;;5055624;28;20052;-66
2023/01/04 07:59:09;;;;;;;13.25;3.80;;;10.80;99.90;;;;;;5054486;28;20044;-64
2023/01/04 08:01:37;;;;;;;11.90;3.53;;;10.80;99.90;;;;;;5055866;28;20115;-64
2023/01/04 08:04:04;;;;;;;16.48;4.32;;;10.80;99.90;;;;;;5055298;28;20455;-64
2023/01/04 08:06:30;;;;;;;11.20;2.92;;;10.80;99.90;;;;;;5038014;28;20127;-63
2023/01/04 08:08:57;;;;;;;10.05;3.60;;;10.80;99.90;;;;;;5055396;28;20520;-64
2023/01/04 08:11:23;;;;;;;13.82;4.35;;;10.90;99.90;;;;;;5038626;28;20048;-64
2023/01/04 08:13:50;;;;;;;11.73;3.65;;;10.80;99.90;;;;;;5071272;28;20043;-64
2023/01/04 08:16:32;;;;;;;10.40;3.78;;;10.90;99.90;;;;;;5072459;28;20044;-64
2023/01/04 08:19:03;;;;;;;10.55;2.78;;;10.80;99.90;;;;;;5054991;28;20128;-64
2023/01/04 08:21:30;;;;;;;11.55;3.67;;;10.90;99.90;;;;;;5037640;28;20098;-64
2023/01/04 08:23:56;;;;;;;12.10;3.47;;;10.90;99.90;;;;;;5038300;28;20044;-64
2023/01/04 08:26:22;;;;;;;12.05;3.47;;;10.90;99.90;;;;;;5071584;28;20483;-64
2023/01/04 08:28:49;;;;;;;14.10;3.92;;;10.90;99.90;;;;;;5069121;28;20079;-63
2023/01/04 08:31:23;;;;;;;13.80;4.50;;;10.90;99.90;;;;;;5072191;28;20092;-63
2023/01/04 08:33:50;;;;;;;14.13;3.92;;;11.00;99.90;;;;;;5072137;28;20425;-63
2023/01/04 08:36:22;;;;;;;19.40;4.45;;;10.90;99.90;;;;;;5070865;28;20130;-63
2023/01/04 08:38:49;;;;;;;13.77;4.20;;;10.90;99.90;;;;;;5072808;28;20033;-63
2023/01/04 08:41:16;;;;;;;13.95;4.22;;;10.90;99.90;;;;;;5041588;28;20159;-64
2023/01/04 08:43:42;;;;;;;16.73;4.53;;;10.90;99.90;;;;;;5038163;28;20183;-63
2023/01/04 08:46:08;;;;;;;15.52;4.97;;;10.90;99.90;;;;;;5037827;28;20489;-64
2023/01/04 08:48:34;;;;;;;15.57;3.50;;;10.90;99.90;;;;;;5053900;28;20044;-63
2023/01/04 08:51:02;;;;;;;12.48;3.85;;;10.90;99.90;;;;;;5044080;28;20036;-64
2023/01/04 08:53:28;;;;;;;12.57;4.43;;;11.00;99.90;;;;;;5032244;28;20406;-65
2023/01/04 09:14:25;;;;;;;17.17;3.83;;;11.00;99.90;;;;;;5068163;28;20123;-64
2023/01/04 09:16:50;;;;;;;19.42;5.15;;;11.00;99.90;;;;;;5055143;28;20127;-65
2023/01/04 09:19:16;;;;;;;15.40;4.53;;;11.00;99.90;;;;;;5069444;28;20529;-65
2023/01/04 09:21:42;;;;;;;16.08;4.97;;;11.00;99.90;;;;;;5069195;28;20029;-65
2023/01/04 09:24:08;;;;;;;16.00;5.18;;;11.00;99.90;;;;;;5050423;28;20045;-65
2023/01/04 09:26:34;;;;;;;21.77;6.68;;;11.10;99.90;;;;;;5058502;28;20053;-66
2023/01/04 09:29:00;;;;;;;15.75;5.20;;;11.10;99.90;;;;;;5070977;28;20396;-66
2023/01/04 09:31:27;;;;;;;20.80;6.30;;;11.00;99.90;;;;;;5070424;28;20040;-65
2023/01/04 09:33:54;;;;;;;16.23;5.97;;;11.10;99.90;;;;;;5056505;28;20727;-65
2023/01/04 09:36:20;;;;;;;18.63;5.63;;;11.10;99.90;;;;;;5050747;28;20496;-65
2023/01/04 09:38:45;;;;;;;21.27;5.68;;;11.20;99.90;;;;;;5049268;28;20051;-66
2023/01/04 09:41:30;;;;;;;24.63;5.78;;;11.10;99.90;;;;;;5050316;28;20050;-66
2023/01/04 09:43:58;;;;;;;20.67;5.07;;;11.10;99.90;;;;;;5047911;28;20080;-66
2023/01/04 09:46:46;;;;;;;20.20;5.63;;;11.20;99.90;;;;;;5071465;28;20039;-65
2023/01/04 09:49:33;;;;;;;18.27;5.28;;;11.20;99.90;;;;;;5054529;28;20063;-65
2023/01/04 09:52:01;;;;;;;19.60;4.63;;;11.20;99.90;;;;;;5071243;28;20060;-66
2023/01/04 09:54:58;;;;;;;26.80;7.20;;;11.30;99.90;;;;;;5071948;28;20178;-66
2023/01/04 09:57:30;;;;;;;22.85;6.25;;;11.30;99.90;;;;;;5063874;28;20368;-66
2023/01/04 10:00:01;;;;;;;30.02;7.15;;;11.30;99.90;;;;;;5071277;28;20127;-66
2023/01/04 10:02:43;;;;;;;20.40;5.38;;;11.30;99.90;;;;;;5057833;28;20052;-67
2023/01/04 10:05:42;;;;;;;22.95;5.90;;;11.30;99.90;;;;;;5037404;28;20041;-67
2023/01/04 10:08:19;;;;;;;31.80;5.97;;;11.40;99.90;;;;;;5020248;28;20511;-66
2023/01/04 10:10:59;;;;;;;26.88;6.20;;;11.50;99.90;;;;;;5067566;28;20040;-65
2023/01/04 10:13:44;;;;;;;20.70;5.45;;;11.40;99.90;;;;;;5073549;28;20055;-66
2023/01/04 10:16:34;;;;;;;21.58;5.60;;;11.50;99.90;;;;;;5056865;28;20517;-66
2023/01/04 10:19:26;;;;;;;24.73;5.38;;;11.60;99.90;;;;;;5056914;28;20140;-65
2023/01/04 10:22:00;;;;;;;19.60;5.20;;;11.50;99.90;;;;;;5056691;28;20037;-66
2023/01/04 10:24:47;;;;;;;22.08;5.60;;;11.60;99.90;;;;;;5056204;28;20044;-65
2023/01/04 10:27:42;;;;;;;23.30;5.47;;;11.60;99.90;;;;;;5073643;28;20178;-64
2023/01/04 10:30:41;;;;;;;27.42;5.90;;;11.60;99.90;;;;;;5051276;28;20033;-65
2023/01/04 10:33:22;;;;;;;20.25;5.65;;;11.70;99.90;;;;;;5059043;28;20086;-65
2023/01/04 10:35:49;;;;;;;26.63;6.28;;;11.70;99.90;;;;;;5074255;28;20037;-65
2023/01/04 10:38:24;;;;;;;23.30;6.22;;;11.70;99.90;;;;;;5057082;28;20036;-65
2023/01/04 10:40:50;;;;;;;20.50;5.32;;;11.70;99.90;;;;;;5039237;28;20041;-65
2023/01/04 10:43:49;;;;;;;20.05;6.68;;;11.70;99.90;;;;;;5057062;28;20373;-65
2023/01/04 10:46:21;;;;;;;27.25;6.90;;;11.80;99.90;;;;;;5057253;28;20044;-65
2023/01/04 10:49:00;;;;;;;18.33;5.68;;;11.80;99.90;;;;;;5061828;28;20481;-65
2023/01/04 10:51:38;;;;;;;25.60;6.22;;;11.80;99.90;;;;;;5046036;28;20041;-65
2023/01/04 10:54:20;;;;;;;20.63;6.43;;;11.80;99.90;;;;;;5060594;28;20466;-65
2023/01/04 10:56:56;;;;;;;27.42;7.50;;;11.90;99.90;;;;;;5070851;28;20045;-65
2023/01/04 10:59:42;;;;;;;25.95;7.25;;;11.90;99.90;;;;;;5072790;28;20076;-65
2023/01/04 11:02:10;;;;;;;24.35;7.05;;;11.90;99.90;;;;;;5072492;28;20050;-64
2023/01/04 11:05:08;;;;;;;25.73;5.95;;;11.80;99.90;;;;;;5068988;28;20041;-64
2023/01/04 11:07:57;;;;;;;19.80;5.22;;;11.90;99.90;;;;;;5037854;28;20122;-64
2023/01/04 11:10:51;;;;;;;17.25;5.38;;;11.90;99.90;;;;;;5054812;28;20182;-65
2023/01/04 11:13:17;;;;;;;20.08;5.90;;;11.90;99.90;;;;;;5026564;28;20119;-64
2023/01/04 11:15:44;;;;;;;20.67;5.15;;;11.90;99.90;;;;;;5052173;28;20053;-64
2023/01/04 11:18:12;;;;;;;15.70;4.32;;;11.90;99.90;;;;;;5052352;28;20049;-65
2023/01/04 11:20:38;;;;;;;21.45;5.25;;;11.90;99.90;;;;;;5035872;28;20041;-64
2023/01/04 11:23:12;;;;;;;18.23;4.82;;;12.00;99.90;;;;;;5052193;28;20044;-65
2023/01/04 11:25:56;;;;;;;23.27;6.80;;;12.00;99.90;;;;;;5056029;28;20179;-64
2023/01/04 11:28:30;;;;;;;14.43;4.97;;;12.10;99.90;;;;;;5033393;28;20551;-64
2023/01/04 11:31:21;;;;;;;18.90;6.22;;;12.10;99.90;;;;;;5049012;28;20044;-64
2023/01/04 11:33:58;;;;;;;18.83;5.28;;;12.10;99.90;;;;;;5049814;28;20486;-64
2023/01/04 11:36:42;;;;;;;23.00;6.32;;;12.00;99.90;;;;;;5051869;28;20060;-65
2023/01/04 11:39:24;;;;;;;28.05;7.88;;;12.00;99.90;;;;;;5034604;28;20556;-64
2023/01/04 11:41:57;;;;;;;22.08;6.00;;;12.00;99.90;;;;;;5032595;28;20512;-64
2023/01/04 11:44:24;;;;;;;26.65;5.78;;;11.90;99.90;;;;;;5044803;28;20508;-64
2023/01/04 11:47:15;;;;;;;18.17;5.78;;;11.90;99.90;;;;;;5035627;28;20052;-64
2023/01/04 11:49:40;;;;;;;25.55;6.82;;;11.90;99.90;;;;;;5053919;28;20045;-64
2023/01/04 11:52:26;;;;;;;20.08;5.60;;;11.90;99.90;;;;;;5052412;28;20037;-64
2023/01/04 11:54:51;;;;;;;18.13;4.95;;;12.00;99.90;;;;;;5053414;28;20047;-64
2023/01/04 11:57:19;;;;;;;26.25;6.03;;;12.00;99.90;;;;;;5053429;28;20045;-64
2023/01/04 11:59:44;;;;;;;18.95;5.00;;;12.00;99.90;;;;;;5054098;28;20057;-64
2023/01/04 12:02:10;;;;;;;19.10;5.20;;;12.10;99.90;;;;;;5060421;28;20115;-64
2023/01/04 12:04:36;;;;;;;15.73;4.55;;;12.10;99.90;;;;;;5070307;28;20472;-64
2023/01/04 12:07:09;;;;;;;16.45;5.03;;;12.10;99.90;;;;;;5071180;28;20051;-64
2023/01/04 12:09:35;;;;;;;17.02;4.70;;;12.10;99.90;;;;;;5073362;28;20036;-64
2023/01/04 12:12:01;;;;;;;13.45;4.00;;;12.10;99.90;;;;;;5073006;28;20048;-64
2023/01/04 12:14:34;;;;;;;20.08;5.72;;;12.10;99.90;;;;;;5072064;28;20397;-64
2023/01/04 12:17:24;;;;;;;19.98;5.03;;;12.10;99.90;;;;;;5054977;28;20171;-64
2023/01/04 12:19:54;;;;;;;13.90;3.75;;;12.10;99.90;;;;;;5053969;28;20047;-64
2023/01/04 12:22:32;;;;;;;15.68;4.90;;;12.10;99.90;;;;;;5071720;28;20060;-65
2023/01/04 12:24:58;;;;;;;14.98;3.97;;;12.10;99.90;;;;;;5072686;28;20040;-64
2023/01/04 12:27:24;;;;;;;16.10;4.78;;;12.00;99.90;;;;;;5070506;28;20061;-64
2023/01/04 12:29:59;;;;;;;16.20;3.78;;;12.10;99.90;;;;;;5071315;28;20047;-64
2023/01/04 12:32:24;;;;;;;13.43;3.80;;;12.00;99.90;;;;;;5071310;28;20048;-64
2023/01/04 12:34:50;;;;;;;19.23;4.82;;;12.10;99.90;;;;;;5070378;28;20048;-64
2023/01/04 12:37:41;;;;;;;12.93;4.15;;;12.00;99.90;;;;;;5071314;28;20174;-64
2023/01/04 12:40:44;;;;;;;12.50;3.63;;;12.00;99.90;;;;;;5071471;28;20397;-64
2023/01/04 12:43:15;;;;;;;15.02;4.25;;;12.00;99.90;;;;;;5072377;28;20045;-64
2023/01/04 12:45:42;;;;;;;12.77;3.70;;;12.00;99.90;;;;;;5071205;28;20131;-64
2023/01/04 12:51:24;;;;;;;14.35;3.90;;;12.00;99.90;;;;;;5072365;28;20043;-64
2023/01/04 12:53:50;;;;;;;12.13;4.07;;;11.90;99.90;;;;;;5071340;28;20399;-65
2023/01/04 12:56:16;;;;;;;12.10;3.70;;;11.90;99.90;;;;;;5070085;28;20044;-64
2023/01/04 12:59:01;;;;;;;14.38;4.28;;;11.90;99.90;;;;;;5071193;28;20118;-64
2023/01/04 13:01:28;;;;;;;20.85;4.40;;;11.90;99.90;;;;;;5070153;28;20103;-64
2023/01/04 13:04:00;;;;;;;17.60;5.07;;;11.90;99.90;;;;;;5071804;28;20036;-64
2023/01/04 13:06:28;;;;;;;16.13;4.50;;;11.90;99.90;;;;;;5070895;28;20040;-64
2023/01/04 13:08:54;;;;;;;12.57;3.55;;;11.90;99.90;;;;;;5070333;28;20441;-64
2023/01/04 13:11:55;;;;;;;16.55;6.22;;;11.90;99.90;;;;;;5070720;28;20115;-64
2023/01/04 13:14:38;;;;;;;18.65;4.00;;;11.90;99.90;;;;;;5053436;28;20401;-64
2023/01/04 13:17:17;;;;;;;17.17;4.07;;;12.00;99.90;;;;;;5070825;28;20051;-64
2023/01/04 13:19:44;;;;;;;17.38;4.40;;;11.90;99.90;;;;;;5070336;28;20048;-64
2023/01/04 13:22:19;;;;;;;19.65;5.68;;;12.00;99.90;;;;;;5071842;28;20531;-64
2023/01/04 13:24:47;;;;;;;17.08;4.57;;;11.90;99.90;;;;;;5053147;28;20124;-64
2023/01/04 13:27:16;;;;;;;16.45;4.82;;;12.00;99.90;;;;;;5070319;28;20482;-65
2023/01/04 13:29:43;;;;;;;16.60;4.78;;;11.90;99.90;;;;;;5053372;28;20425;-64
2023/01/04 13:32:12;;;;;;;11.82;3.63;;;12.00;99.90;;;;;;5070778;28;20199;-64
2023/01/04 13:34:46;;;;;;;19.15;5.68;;;11.90;99.90;;;;;;5070970;28;20464;-64
2023/01/04 13:37:17;;;;;;;17.15;4.95;;;11.90;99.90;;;;;;5069747;28;20044;-64
2023/01/04 13:39:58;;;;;;;20.70;6.40;;;11.90;99.90;;;;;;5056436;28;20489;-63
2023/01/04 13:42:27;;;;;;;19.75;5.93;;;11.90;99.90;;;;;;5068403;28;20123;-65
2023/01/04 13:45:29;;;;;;;16.48;4.75;;;11.90;99.90;;;;;;5069628;28;20040;-64
2023/01/04 13:47:58;;;;;;;23.38;7.13;;;11.90;99.90;;;;;;5062060;28;20079;-64
2023/01/04 13:50:33;;;;;;;22.10;4.80;;;11.90;99.90;;;;;;5050427;28;20119;-64
2023/01/04 13:52:59;;;;;;;17.10;5.22;;;11.90;99.90;;;;;;5051035;28;20160;-64
2023/01/04 13:55:29;;;;;;;15.38;4.68;;;11.90;99.90;;;;;;5060924;28;20536;-64
2023/01/04 13:57:59;;;;;;;16.42;5.07;;;11.90;99.90;;;;;;5050539;28;20048;-64
2023/01/04 14:00:50;;;;;;;19.90;5.20;;;11.90;99.90;;;;;;5052067;28;20398;-64
2023/01/04 14:03:24;;;;;;;19.38;4.97;;;11.80;99.90;;;;;;5049643;28;20498;-64
2023/01/04 14:05:53;;;;;;;20.70;4.63;;;11.80;99.90;;;;;;5049662;28;20056;-64